Time;durP1;ratioP1;P1;durP2;ratioP2;P2;SDS_P1;SDS_P2;PMS_P1;PMS_P2;Temp;Humidity;BMP_temperature;BMP_pressure;BME280_temperature;BME280_humidity;BME280_pressure;Samples;Min_cycle;Max_cycle;Signal;HPM_P1;HPM_P2
2023/08/28 00:02:34;;;;;;;;;;;19.30;96.80;;;19.51;59.28;98278.72;4915257;28;122527;-85
2023/08/28 00:05:03;;;;;;;;;;;19.20;97.10;;;19.53;59.05;98262.31;4944360;28;114379;-85
2023/08/28 00:07:30;;;;;;;;;;;19.20;96.80;;;19.52;59.24;98263.50;4958481;28;113314;-86
2023/08/28 00:09:56;;;;;;;;;;;19.20;97.00;;;19.53;59.12;98259.50;4931706;28;124760;-84
2023/08/28 00:12:23;;;;;;;;;;;19.30;97.20;;;19.54;59.13;98252.72;4946389;28;124161;-86
2023/08/28 00:14:49;;;;;;;;;;;17.60;96.60;;;19.54;59.09;98256.31;4934615;28;115148;-85
2023/08/28 00:17:23;;;;;;;;;;;19.20;97.30;;;19.58;59.04;98250.75;4915396;28;114816;-84
2023/08/28 00:19:49;;;;;;;;;;;19.20;96.70;;;19.58;58.69;98247.94;4933609;28;124428;-84
2023/08/28 00:22:16;;;;;;;;;;;19.20;96.90;;;19.55;58.72;98257.13;4919342;28;123460;-84
2023/08/28 00:24:42;;;;;;;;;;;19.30;97.30;;;19.55;58.73;98266.34;4925373;28;113994;-85
2023/08/28 00:27:09;;;;;;;;;;;19.50;97.40;;;19.57;58.75;98263.16;4940265;28;113645;-85
2023/08/28 00:29:38;;;;;;;;;;;19.30;97.20;;;19.58;58.86;98261.94;4944991;28;124279;-84
2023/08/28 00:32:05;;;;;;;;;;;21.30;97.20;;;19.58;58.83;98242.34;4931425;28;124791;-85
2023/08/28 00:34:31;;;;;;;;;;;19.20;96.30;;;19.59;58.46;98238.34;4928724;28;114417;-85
2023/08/28 00:37:00;;;;;;;;;;;19.20;96.30;;;19.60;58.42;98237.16;4947201;28;113774;-85
2023/08/28 00:39:27;;;;;;;;;;;19.30;96.20;;;19.60;58.14;98242.75;4928484;28;124103;-85
2023/08/28 00:41:56;;;;;;;;;;;19.30;96.20;;;19.60;58.11;98251.97;4934806;28;123978;-85
2023/08/28 00:44:22;;;;;;;;;;;19.30;96.10;;;19.62;57.94;98269.22;4946880;28;113521;-85
2023/08/28 00:46:48;;;;;;;;;;;19.30;96.00;;;19.65;58.04;98276.84;4928411;28;113746;-85
2023/08/28 00:49:15;;;;;;;;;;;19.30;96.00;;;19.67;57.89;98279.31;4929164;28;124619;-85
2023/08/28 00:51:41;;;;;;;;;;;19.30;95.90;;;19.67;57.89;98279.31;4948069;28;124856;-84
2023/08/28 00:54:08;;;;;;;;;;;19.30;95.90;;;19.70;57.86;98278.53;4924410;28;114388;-85
2023/08/28 00:56:35;;;;;;;;;;;19.30;95.90;;;19.73;58.04;98274.94;4934229;28;113722;-83
2023/08/28 00:59:01;;;;;;;;;;;19.40;96.00;;;19.74;58.16;98270.94;4961353;28;123166;-86
2023/08/28 01:01:28;;;;;;;;;;;19.40;96.00;;;19.78;58.05;98269.00;4922315;28;123836;-85
2023/08/28 01:03:54;;;;;;;;;;;19.40;96.10;;;19.81;57.88;98264.59;4942513;28;115758;-84
2023/08/28 01:06:31;;;;;;;;;;;19.40;96.10;;;19.82;58.17;98258.59;4945918;28;114494;-83
2023/08/28 01:09:32;;;;;;;;;;;19.40;96.10;;;19.83;57.86;98257.41;4941780;28;124367;-84
2023/08/28 01:12:04;;;;;;;;;;;19.40;96.10;;;19.86;57.92;98255.84;4921476;28;123950;-85
2023/08/28 01:14:31;;;;;;;;;;;19.50;96.10;;;19.86;57.82;98265.06;4945650;28;113735;-84
2023/08/28 01:17:02;;;;;;;;;;;19.50;96.00;;;19.85;57.57;98266.25;4958173;28;113667;-84
2023/08/28 01:19:38;;;;;;;;;;;19.50;95.90;;;19.83;57.61;98268.63;4932582;28;124560;-84
2023/08/28 01:22:32;;;;;;;;;;;19.50;95.80;;;19.78;57.68;98266.19;4944207;28;123572;-86
2023/08/28 01:25:12;;;;;;;;;;;19.40;95.80;;;19.79;57.66;98283.81;4934120;28;115146;-85
2023/08/28 01:27:40;;;;;;;;;;;19.40;95.80;;;19.78;57.75;98283.00;4930103;28;113357;-84
2023/08/28 01:30:08;;;;;;;;;;;19.50;95.90;;;19.79;57.94;98279.00;4944345;28;123638;-84
2023/08/28 01:32:34;;;;;;;;;;;19.50;96.00;;;19.80;58.13;98275.03;4931039;28;124138;-85
2023/08/28 01:35:08;;;;;;;;;;;19.50;96.00;;;19.81;58.13;98287.84;4940338;28;114376;-85
2023/08/28 01:37:55;;;;;;;;;;;19.50;96.00;;;19.81;58.17;98289.84;4914627;28;113827;-85
2023/08/28 01:40:29;;;;;;;;;;;19.50;96.10;;;19.83;58.48;98291.06;4948652;28;124888;-85
2023/08/28 01:42:56;;;;;;;;;;;19.50;96.20;;;19.86;58.15;98281.88;4935299;28;124608;-85
2023/08/28 01:45:22;;;;;;;;;;;19.50;96.20;;;19.86;58.19;98284.69;4941617;28;114871;-85
2023/08/28 01:47:50;;;;;;;;;;;19.50;96.20;;;19.89;58.28;98285.09;4920346;28;114321;-85
2023/08/28 01:50:16;;;;;;;;;;;19.50;96.20;;;19.91;58.00;98271.47;4944574;28;123356;-85
2023/08/28 01:52:42;;;;;;;;;;;19.50;96.20;;;19.91;58.34;98277.91;4942154;28;124019;-85
2023/08/28 01:55:09;;;;;;;;;;;19.50;96.30;;;19.92;58.54;98284.31;4947533;28;115293;-85
2023/08/28 01:57:38;;;;;;;;;;;19.50;96.30;;;19.94;58.36;98281.94;4931601;28;115301;-85
2023/08/28 02:00:04;;;;;;;;;;;19.50;96.30;;;19.96;58.71;98282.34;4943269;28;124342;-86
2023/08/28 02:02:31;;;;;;;;;;;19.60;96.40;;;19.98;58.34;98268.75;4939964;28;123760;-85
2023/08/28 02:04:57;;;;;;;;;;;19.60;96.40;;;19.98;58.12;98266.75;4946144;28;115041;-85
2023/08/28 02:07:23;;;;;;;;;;;19.60;96.40;;;19.98;58.21;98258.31;4943828;28;113818;-85
2023/08/28 02:09:50;;;;;;;;;;;19.60;96.30;;;19.97;58.60;98255.94;4935498;28;124140;-85
2023/08/28 02:12:16;;;;;;;;;;;19.60;96.30;;;19.95;58.18;98247.88;4915646;28;123303;-85
2023/08/28 02:14:42;;;;;;;;;;;19.60;96.30;;;19.95;58.27;98247.09;4932580;28;114359;-85
2023/08/28 02:17:08;;;;;;;;;;;19.60;96.20;;;19.94;58.15;98239.88;4931415;28;115088;-85
2023/08/28 02:19:35;;;;;;;;;;;19.60;96.20;;;19.93;58.18;98232.66;4943660;28;124141;-85
2023/08/28 02:22:01;;;;;;;;;;;19.50;96.10;;;19.91;57.99;98223.81;4938349;28;123164;-85
2023/08/28 02:24:30;;;;;;;;;;;19.60;96.10;;;19.92;58.22;98219.84;4939598;28;113540;-86
2023/08/28 02:26:56;;;;;;;;;;;19.60;96.10;;;19.92;57.69;98217.03;4932396;28;113733;-83
2023/08/28 02:29:25;;;;;;;;;;;19.50;96.00;;;19.90;57.52;98211.81;4932135;28;124126;-85
2023/08/28 02:31:51;;;;;;;;;;;19.60;95.90;;;19.85;57.59;98198.97;4948371;28;123852;-85
2023/08/28 02:34:19;;;;;;;;;;;19.50;95.70;;;19.84;57.37;98202.94;4936124;28;114258;-85
2023/08/28 02:36:46;;;;;;;;;;;19.50;95.60;;;19.82;57.24;98201.72;4923003;28;112734;-85
2023/08/28 02:39:13;;;;;;;;;;;19.50;95.60;;;19.79;57.23;98200.50;4953397;28;124434;-86
2023/08/28 02:41:39;;;;;;;;;;;19.50;95.50;;;19.76;57.11;98195.69;4949806;28;124109;-85
2023/08/28 02:44:07;;;;;;;;;;;19.50;95.40;;;19.73;56.78;98196.47;4934947;28;115404;-86
2023/08/28 02:46:34;;;;;;;;;;;19.40;95.60;;;19.69;57.12;98192.81;4932463;28;114121;-85
2023/08/28 02:49:03;;;;;;;;;;;19.40;95.30;;;19.66;57.26;98202.00;4938250;28;124149;-85
2023/08/28 02:51:29;;;;;;;;;;;19.40;95.30;;;19.62;57.18;98201.94;4948316;28;124396;-85
2023/08/28 02:53:56;;;;;;;;;;;19.40;95.40;;;19.57;57.51;98187.50;4937902;28;114377;-86
2023/08/28 02:56:26;;;;;;;;;;;19.30;95.40;;;19.53;57.73;98193.06;4950120;28;113989;-85
2023/08/28 02:58:53;;;;;;;;;;;19.30;95.80;;;19.51;57.88;98189.06;4918294;28;124995;-85
2023/08/28 03:01:20;;;;;;;;;;;19.30;95.60;;;19.51;57.80;98194.66;4921392;28;123153;-86
2023/08/28 03:03:47;;;;;;;;;;;19.20;95.70;;;19.50;58.34;98193.81;4966358;28;114100;-85
2023/08/28 03:06:13;;;;;;;;;;;19.20;95.70;;;19.49;58.26;98191.44;4930959;28;114100;-85
2023/08/28 03:08:40;;;;;;;;;;;19.20;95.80;;;19.48;58.40;98195.41;4945613;28;124870;-85
2023/08/28 03:11:06;;;;;;;;;;;19.20;95.90;;;19.43;58.81;98188.97;4939759;28;123547;-85
2023/08/28 03:13:32;;;;;;;;;;;19.20;95.90;;;19.40;58.85;98195.34;4935680;28;113379;-85
2023/08/28 03:15:59;;;;;;;;;;;19.20;95.90;;;19.34;58.75;98191.31;4939940;28;113901;-85
2023/08/28 03:18:27;;;;;;;;;;;19.10;95.90;;;19.26;58.82;98184.00;4942368;28;124348;-86
2023/08/28 03:20:54;;;;;;;;;;;19.10;96.00;;;19.20;58.99;98182.75;4934309;28;123929;-86
2023/08/28 03:23:20;;;;;;;;;;;19.00;96.00;;;19.16;59.20;98167.91;4941335;28;113863;-86
2023/08/28 03:25:46;;;;;;;;;;;19.00;96.10;;;19.14;59.47;98178.69;4941326;28;113746;-85
2023/08/28 03:28:13;;;;;;;;;;;19.00;96.10;;;19.13;59.50;98177.09;4915381;28;123138;-86
2023/08/28 03:30:39;;;;;;;;;;;18.90;96.20;;;19.13;59.64;98182.69;4936977;28;123847;-85
2023/08/28 03:33:07;;;;;;;;;;;18.90;96.20;;;19.16;59.48;98184.72;4943516;28;115406;-86
2023/08/28 03:35:34;;;;;;;;;;;18.90;96.30;;;19.18;59.56;98176.72;4934370;28;114200;-83
2023/08/28 03:38:03;;;;;;;;;;;18.90;96.30;;;19.20;59.19;98179.94;4931678;28;125468;-86
2023/08/28 03:40:29;;;;;;;;;;;18.90;96.30;;;19.18;59.15;98185.94;4927729;28;124483;-86
2023/08/28 03:42:58;;;;;;;;;;;18.90;96.20;;;19.18;58.98;98179.53;4933814;28;108434;-85
2023/08/28 03:45:24;;;;;;;;;;;18.90;96.20;;;19.18;58.85;98185.13;4938506;28;113994;-86
2023/08/28 03:47:50;;;;;;;;;;;18.90;96.10;;;19.18;58.87;98193.53;4939047;28;122937;-86
2023/08/28 03:50:17;;;;;;;;;;;18.90;96.10;;;19.20;58.59;98202.34;4947346;28;125423;-86
2023/08/28 03:52:43;;;;;;;;;;;18.90;96.10;;;19.23;58.58;98206.38;4922568;28;114344;-85
2023/08/28 03:55:10;;;;;;;;;;;18.90;96.10;;;19.22;58.38;98211.19;4935411;28;113681;-85
2023/08/28 03:57:37;;;;;;;;;;;18.90;96.00;;;19.19;58.31;98206.34;4952949;28;123251;-86
2023/08/28 04:00:07;;;;;;;;;;;18.90;95.90;;;19.16;58.58;98207.94;4942217;28;123674;-86
2023/08/28 04:02:34;;;;;;;;;;;18.90;95.90;;;19.15;58.36;98222.31;4931582;28;114120;-85
2023/08/28 04:05:04;;;;;;;;;;;18.90;95.90;;;19.15;58.29;98219.50;4918874;28;113983;-85
2023/08/28 04:07:31;;;;;;;;;;;18.90;95.90;;;19.11;58.16;98224.28;4938410;28;124342;-85
2023/08/28 04:10:04;;;;;;;;;;;18.80;95.80;;;19.07;58.57;98209.41;4927587;28;124680;-86
2023/08/28 04:12:31;;;;;;;;;;;18.80;95.80;;;19.02;58.47;98212.56;4917142;28;113604;-85
2023/08/28 04:14:58;;;;;;;;;;;18.80;95.80;;;18.97;58.47;98222.94;4916925;28;111809;-85
2023/08/28 04:17:27;;;;;;;;;;;18.80;95.80;;;18.94;58.57;98211.66;4935556;28;124145;-86
2023/08/28 04:19:54;;;;;;;;;;;18.70;95.80;;;18.92;58.79;98212.06;4932753;28;123405;-86
2023/08/28 04:22:21;;;;;;;;;;;18.70;95.80;;;18.91;58.82;98207.66;4933720;28;114587;-86
2023/08/28 04:24:50;;;;;;;;;;;18.70;95.90;;;18.87;58.88;98206.81;4930891;28;114053;-85
2023/08/28 04:27:16;;;;;;;;;;;18.70;95.80;;;18.83;58.88;98188.34;4922902;28;123867;-85
2023/08/28 04:29:43;;;;;;;;;;;18.60;95.90;;;18.80;59.14;98184.31;4932340;28;123944;-86
2023/08/28 04:32:09;;;;;;;;;;;18.60;95.90;;;18.76;59.11;98184.28;4930847;28;116113;-86
2023/08/28 04:34:36;;;;;;;;;;;18.60;95.90;;;18.71;59.02;98181.81;4952226;28;113123;-86
2023/08/28 04:37:03;;;;;;;;;;;18.60;95.90;;;18.65;59.37;98172.16;4943384;28;124564;-85
2023/08/28 04:39:29;;;;;;;;;;;18.50;95.90;;;18.62;59.45;98180.47;4944309;28;124994;-85
2023/08/28 04:41:58;;;;;;;;;;;18.50;96.10;;;18.58;59.77;98174.03;4941646;28;114427;-85
2023/08/28 04:44:27;;;;;;;;;;;18.40;96.10;;;18.53;59.87;98175.19;4949952;28;113534;-85
2023/08/28 04:46:54;;;;;;;;;;;18.20;96.10;;;18.51;60.05;98172.78;4953276;28;123573;-86
2023/08/28 04:49:20;;;;;;;;;;;18.40;96.20;;;18.50;60.00;98175.94;4946244;28;122105;-85
2023/08/28 04:51:46;;;;;;;;;;;18.40;96.30;;;18.51;60.35;98177.53;4957094;28;114385;-85
2023/08/28 04:54:12;;;;;;;;;;;18.30;96.40;;;18.50;60.23;98171.16;4931443;28;114105;-86
2023/08/28 04:56:39;;;;;;;;;;;18.30;96.40;;;18.48;60.19;98170.75;4924185;28;124199;-85
2023/08/28 04:59:05;;;;;;;;;;;18.30;96.50;;;18.46;60.38;98178.72;4953181;28;123789;-85
2023/08/28 05:01:32;;;;;;;;;;;18.30;96.50;;;18.46;60.32;98175.13;4945483;28;114111;-85
2023/08/28 05:03:59;;;;;;;;;;;18.30;96.60;;;18.45;60.45;98185.47;4947380;28;112968;-85
2023/08/28 05:06:25;;;;;;;;;;;18.30;96.60;;;18.44;60.57;98186.66;4937157;28;124465;-86
2023/08/28 05:08:51;;;;;;;;;;;18.20;96.70;;;18.47;60.69;98177.50;4941015;28;124068;-86
2023/08/28 05:11:18;;;;;;;;;;;18.30;96.80;;;18.52;60.58;98168.78;4938291;28;115495;-86
2023/08/28 05:13:45;;;;;;;;;;;18.30;96.90;;;18.55;60.70;98173.63;4967562;28;114958;-85
2023/08/28 05:16:13;;;;;;;;;;;18.30;96.90;;;18.58;60.65;98176.84;4943244;28;123861;-86
2023/08/28 05:18:41;;;;;;;;;;;18.30;96.90;;;18.56;60.70;98177.22;4949240;28;124115;-85
2023/08/28 05:21:08;;;;;;;;;;;18.30;96.90;;;18.53;60.60;98164.78;4936639;28;113479;-86
2023/08/28 05:23:36;;;;;;;;;;;18.30;96.90;;;18.51;60.77;98153.19;4949825;28;114282;-85
2023/08/28 05:26:02;;;;;;;;;;;18.30;96.90;;;18.48;60.84;98156.75;4939544;28;124190;-86
2023/08/28 05:28:31;;;;;;;;;;;18.30;96.90;;;18.48;60.83;98151.16;4946018;28;123868;-86
2023/08/28 05:30:58;;;;;;;;;;;18.30;97.00;;;18.48;61.04;98158.72;4948255;28;114838;-85
2023/08/28 05:33:24;;;;;;;;;;;18.30;97.00;;;18.50;61.18;98165.56;4928727;28;113516;-85
2023/08/28 05:35:50;;;;;;;;;;;18.30;97.10;;;18.48;61.07;98165.16;4931603;28;123466;-86
2023/08/28 05:38:16;;;;;;;;;;;18.20;97.10;;;18.49;61.27;98166.75;4937322;28;124288;-85
2023/08/28 05:40:44;;;;;;;;;;;18.30;97.20;;;18.49;61.51;98168.75;4934501;28;113791;-85
2023/08/28 05:43:10;;;;;;;;;;;18.20;97.20;;;18.48;61.36;98175.50;4937661;28;113729;-85
2023/08/28 05:45:37;;;;;;;;;;;18.20;97.20;;;18.47;61.42;98171.91;4965960;28;124179;-85
2023/08/28 05:48:04;;;;;;;;;;;18.40;97.30;;;18.47;61.50;98159.94;4935729;28;123935;-85
2023/08/28 05:50:30;;;;;;;;;;;18.20;97.30;;;18.47;61.35;98171.13;4947075;28;113940;-86
2023/08/28 05:52:56;;;;;;;;;;;18.20;97.30;;;18.46;61.46;98169.53;4960348;28;113956;-86
2023/08/28 05:55:22;;;;;;;;;;;18.20;97.30;;;18.44;61.58;98161.50;4931342;28;124380;-85
2023/08/28 05:57:49;;;;;;;;;;;18.20;97.40;;;18.43;61.62;98151.50;4930621;28;124222;-86
2023/08/28 06:00:16;;;;;;;;;;;18.20;97.40;;;18.42;61.65;98152.66;4949559;28;114757;-86
2023/08/28 06:02:42;;;;;;;;;;;18.20;97.40;;;18.41;61.79;98145.47;4941547;28;114800;-85
2023/08/28 06:05:09;;;;;;;;;;;18.20;97.50;;;18.40;61.73;98143.03;4936739;28;124202;-85
2023/08/28 06:07:36;;;;;;;;;;;18.20;97.50;;;18.40;62.01;98143.84;4945400;28;122928;-85
2023/08/28 06:10:03;;;;;;;;;;;18.20;97.60;;;18.39;61.99;98133.84;4927449;28;114430;-85
2023/08/28 06:12:29;;;;;;;;;;;18.20;97.60;;;18.41;62.07;98134.28;4924275;28;112443;-84
2023/08/28 06:14:57;;;;;;;;;;;18.20;97.70;;;18.41;62.19;98134.28;4935947;28;124675;-85
2023/08/28 06:17:26;;;;;;;;;;;18.20;97.70;;;18.38;62.14;98126.66;4934280;28;123930;-83
2023/08/28 06:19:52;;;;;;;;;;;18.20;97.80;;;18.40;62.20;98129.06;4942736;28;114701;-84
2023/08/28 06:22:19;;;;;;;;;;;18.10;97.80;;;18.40;62.38;98124.25;4927328;28;113504;-84
2023/08/28 06:24:50;;;;;;;;;;;18.20;97.90;;;18.38;62.63;98123.06;4945219;28;124208;-84
2023/08/28 06:27:16;;;;;;;;;;;18.20;98.00;;;18.37;62.72;98094.25;4948655;28;124305;-83
2023/08/28 06:29:42;;;;;;;;;;;18.10;98.00;;;18.38;62.78;98089.50;4932112;28;114641;-83
2023/08/28 06:32:09;;;;;;;;;;;18.10;98.10;;;18.37;62.88;98116.63;4950313;28;113583;-84
2023/08/28 06:34:35;;;;;;;;;;;18.20;98.10;;;18.39;62.84;98114.28;4946503;28;124131;-84
2023/08/28 06:37:01;;;;;;;;;;;18.20;98.10;;;18.42;62.96;98113.50;4932056;28;125652;-83
2023/08/28 06:39:27;;;;;;;;;;;18.20;98.20;;;18.47;62.92;98104.78;4942592;28;114542;-84
2023/08/28 06:41:54;;;;;;;;;;;18.20;98.30;;;18.49;63.30;98104.41;4931115;28;114423;-84
2023/08/28 06:44:22;;;;;;;;;;;18.20;98.60;;;18.51;63.33;98100.03;4945407;28;124429;-84
2023/08/28 06:46:48;;;;;;;;;;;18.20;98.50;;;18.49;63.32;98093.22;4930606;28;124282;-84
2023/08/28 06:49:15;;;;;;;;;;;18.20;98.50;;;18.50;63.60;98106.00;4930921;28;115281;-84
2023/08/28 06:51:41;;;;;;;;;;;18.20;98.60;;;18.42;63.86;98090.34;4933736;28;114708;-84
2023/08/28 06:54:07;;;;;;;;;;;18.10;98.80;;;18.43;63.76;98081.56;4930244;28;124085;-84
2023/08/28 06:56:33;;;;;;;;;;;18.10;98.80;;;18.45;63.75;98083.97;4946095;28;123437;-82
2023/08/28 06:59:03;;;;;;;;;;;18.20;98.80;;;18.46;63.91;98092.00;4930242;28;114346;-85
2023/08/28 07:01:29;;;;;;;;;;;18.20;99.00;;;18.50;63.75;98092.03;4948180;28;113806;-83
2023/08/28 07:03:55;;;;;;;;;;;18.20;98.80;;;18.54;63.57;98090.09;4948617;28;123490;-83
2023/08/28 07:06:22;;;;;;;;;;;18.20;98.80;;;18.53;63.68;98094.84;4946652;28;123390;-85
2023/08/28 07:08:48;;;;;;;;;;;18.30;98.80;;;18.53;63.60;98110.84;4931018;28;114334;-84
2023/08/28 07:11:14;;;;;;;;;;;18.30;98.70;;;18.52;63.74;98107.25;4949899;28;113783;-85
2023/08/28 07:13:41;;;;;;;;;;;18.30;98.70;;;18.50;63.76;98112.41;4947837;28;124206;-84
2023/08/28 07:16:07;;;;;;;;;;;18.30;98.70;;;18.51;63.79;98127.19;4944491;28;124553;-85
2023/08/28 07:18:35;;;;;;;;;;;18.30;98.70;;;18.45;63.82;98135.13;4947167;28;114762;-85
2023/08/28 07:21:02;;;;;;;;;;;18.30;98.60;;;18.44;63.50;98132.72;4928660;28;113679;-84
2023/08/28 07:23:28;;;;;;;;;;;18.20;98.40;;;18.49;63.36;98124.00;4915163;28;123523;-85
2023/08/28 07:25:56;;;;;;;;;;;18.20;98.50;;;18.51;63.26;98122.44;4962501;28;123322;-85
2023/08/28 07:28:23;;;;;;;;;;;18.30;98.50;;;18.55;62.94;98117.66;4947765;28;114466;-84
2023/08/28 07:30:50;;;;;;;;;;;18.30;98.40;;;18.60;62.79;98118.53;4942177;28;112812;-83
2023/08/28 07:33:17;;;;;;;;;;;18.30;98.30;;;18.61;62.55;98120.91;4934293;28;124641;-85
2023/08/28 07:35:44;;;;;;;;;;;18.30;98.30;;;18.68;62.51;98097.81;4930902;28;124137;-84
2023/08/28 07:38:10;;;;;;;;;;;18.40;98.30;;;18.74;62.44;98096.28;4953857;28;115606;-85
2023/08/28 07:40:37;;;;;;;;;;;18.40;98.30;;;18.78;62.27;98097.16;4950508;28;114909;-85
2023/08/28 07:43:06;;;;;;;;;;;18.40;98.20;;;18.75;62.14;98087.53;4966396;28;123561;-85
2023/08/28 07:45:32;;;;;;;;;;;18.40;98.10;;;18.76;62.00;98088.34;4944008;28;124462;-85
2023/08/28 07:48:03;;;;;;;;;;;18.50;98.00;;;18.79;61.92;98090.38;4938102;28;114437;-86
2023/08/28 07:50:30;;;;;;;;;;;18.50;97.90;;;18.76;61.75;98096.72;4912918;28;113743;-86
2023/08/28 07:53:03;;;;;;;;;;;18.50;97.90;;;18.78;61.90;98108.34;4946963;28;124544;-84
2023/08/28 07:55:30;;;;;;;;;;;18.50;97.80;;;18.79;61.66;98123.16;4941729;28;123845;-85
2023/08/28 07:57:56;;;;;;;;;;;20.50;98.60;;;18.82;61.37;98131.56;4960234;28;114664;-84
2023/08/28 08:00:22;;;;;;;;;;;18.60;97.60;;;18.85;61.54;98125.19;4938443;28;114321;-83
2023/08/28 08:02:51;;;;;;;;;;;18.60;97.60;;;18.90;61.39;98138.06;4945761;28;124585;-83
2023/08/28 08:05:20;;;;;;;;;;;18.60;97.60;;;18.97;61.31;98143.75;4927430;28;124155;-84
2023/08/28 08:07:47;;;;;;;;;;;18.70;97.70;;;19.02;61.16;98139.75;4918171;28;113980;-83
2023/08/28 08:10:14;;;;;;;;;;;18.70;97.60;;;19.08;61.08;98138.25;4934621;28;113948;-82
2023/08/28 08:12:44;;;;;;;;;;;18.70;97.60;;;19.13;60.58;98132.28;4926518;28;123644;-83
2023/08/28 08:15:11;;;;;;;;;;;18.80;97.50;;;19.15;59.90;98132.69;4933217;28;122983;-82
2023/08/28 08:17:37;;;;;;;;;;;18.80;97.20;;;19.14;59.70;98147.91;4931353;28;114611;-82
2023/08/28 08:20:10;;;;;;;;;;;18.70;96.90;;;19.10;59.44;98156.28;4919648;28;113230;-82
2023/08/28 08:22:38;;;;;;;;;;;18.70;96.80;;;19.06;59.19;98157.41;4957343;28;125406;-84
2023/08/28 08:25:05;;;;;;;;;;;18.70;96.70;;;19.03;58.26;98164.59;4932980;28;123736;-84
2023/08/28 08:27:31;;;;;;;;;;;18.60;96.10;;;19.01;58.62;98172.56;4934741;28;114577;-82
2023/08/28 08:29:58;;;;;;;;;;;18.70;96.20;;;19.04;57.92;98163.38;4942849;28;113913;-84
2023/08/28 08:32:24;;;;;;;;;;;18.60;95.90;;;19.03;58.16;98158.19;4939308;28;124174;-82
2023/08/28 08:34:50;;;;;;;;;;;18.70;95.90;;;19.07;57.84;98161.81;4943074;28;123960;-83
2023/08/28 08:37:16;;;;;;;;;;;18.70;95.80;;;19.10;57.77;98161.03;4945370;28;114571;-83
2023/08/28 08:39:43;;;;;;;;;;;18.70;95.70;;;19.13;57.73;98154.69;4952339;28;113694;-83
2023/08/28 08:42:09;;;;;;;;;;;18.80;95.60;;;19.14;57.26;98157.09;4952065;28;124643;-83
2023/08/28 08:44:37;;;;;;;;;;;18.80;95.40;;;19.14;56.50;98157.09;4926382;28;123835;-83
2023/08/28 08:47:04;;;;;;;;;;;18.80;95.00;;;19.11;55.42;98157.06;4952448;28;113377;-83
2023/08/28 08:49:34;;;;;;;;;;;18.80;94.30;;;19.09;54.80;98162.25;4937305;28;112421;-84
2023/08/28 08:52:07;;;;;;;;;;;18.80;94.00;;;19.07;54.77;98164.63;4926032;28;124260;-82
2023/08/28 08:54:41;;;;;;;;;;;18.80;93.90;;;19.08;55.10;98155.03;4968040;28;123983;-84
2023/08/28 08:57:13;;;;;;;;;;;18.80;94.10;;;19.10;54.96;98158.25;4948057;28;114922;-84
2023/08/28 08:59:40;;;;;;;;;;;18.80;94.00;;;19.11;55.05;98155.06;4953655;28;113796;-82
2023/08/28 09:02:08;;;;;;;;;;;18.80;94.00;;;19.14;55.16;98156.28;4932536;28;123383;-84
2023/08/28 09:04:35;;;;;;;;;;;18.80;94.10;;;19.15;54.99;98169.09;4950879;28;123971;-82
2023/08/28 09:07:05;;;;;;;;;;;18.80;94.10;;;19.18;55.09;98166.34;4932968;28;114379;-82
2023/08/28 09:09:33;;;;;;;;;;;18.80;94.10;;;19.22;55.18;98157.97;4924912;28;114420;-83
2023/08/28 09:12:00;;;;;;;;;;;18.80;94.20;;;19.27;55.10;98168.03;4927779;28;124179;-83
2023/08/28 09:14:28;;;;;;;;;;;18.90;94.10;;;19.28;54.54;98159.22;4950351;28;123930;-84
2023/08/28 09:16:55;;;;;;;;;;;18.90;93.90;;;19.24;54.36;98155.59;4919155;28;115626;-85
2023/08/28 09:19:22;;;;;;;;;;;18.90;93.80;;;19.22;54.47;98159.97;4944292;28;115274;-83
2023/08/28 09:21:48;;;;;;;;;;;18.90;93.70;;;19.27;54.94;98152.03;4956622;28;123601;-83
2023/08/28 09:24:21;;;;;;;;;;;18.90;93.80;;;19.33;54.60;98149.66;4926193;28;124545;-82
2023/08/28 09:26:54;;;;;;;;;;;19.00;93.90;;;19.40;54.67;98150.53;4939059;28;114879;-83
2023/08/28 09:29:22;;;;;;;;;;;19.00;93.90;;;19.46;54.62;98144.56;4935895;28;113368;-84
2023/08/28 09:31:51;;;;;;;;;;;19.10;93.80;;;19.48;54.25;98133.75;4921240;28;124052;-83
2023/08/28 09:34:18;;;;;;;;;;;19.10;93.70;;;19.43;54.49;98138.56;4954679;28;123133;-83
2023/08/28 09:36:44;;;;;;;;;;;19.10;93.40;;;19.45;54.44;98134.53;4920136;28;114246;-84
2023/08/28 09:39:12;;;;;;;;;;;19.10;93.60;;;19.49;54.16;98129.78;4938379;28;112849;-83
2023/08/28 09:41:43;;;;;;;;;;;19.10;93.50;;;19.53;54.06;98128.63;4949521;28;124235;-83
2023/08/28 09:44:10;;;;;;;;;;;19.20;93.50;;;19.61;54.11;98126.66;4959524;28;124876;-84
2023/08/28 09:46:37;;;;;;;;;;;19.30;93.60;;;;;;4919260;28;114628;-84
2023/08/28 09:49:08;;;;;;;;;;;19.20;93.00;;;19.63;52.77;98096.25;4944440;28;113946;-84
2023/08/28 09:51:48;;;;;;;;;;;19.20;92.90;;;19.66;53.16;98092.69;4927197;28;124511;-84
2023/08/28 09:54:15;;;;;;;;;;;19.20;93.00;;;19.66;53.11;98089.88;4932208;28;124060;-83
2023/08/28 09:56:42;;;;;;;;;;;19.20;92.90;;;19.68;53.23;98081.91;4947736;28;113096;-83
2023/08/28 09:59:14;;;;;;;;;;;19.20;93.00;;;19.73;53.09;98089.16;4940086;28;113462;-83
2023/08/28 10:01:40;;;;;;;;;;;19.30;92.90;;;19.75;52.18;98095.19;4940675;28;125030;-83
2023/08/28 10:04:08;;;;;;;;;;;19.30;92.40;;;19.69;52.10;98086.31;4946529;28;123551;-83
2023/08/28 10:06:39;;;;;;;;;;;19.30;92.30;;;19.69;52.17;98089.09;4961475;28;115571;-84
2023/08/28 10:09:10;;;;;;;;;;;19.20;92.50;;;19.77;53.00;98092.75;4925160;28;114603;-83
2023/08/28 10:11:39;;;;;;;;;;;19.30;92.80;;;19.87;52.78;98078.00;4953376;28;124263;-81
2023/08/28 10:14:06;;;;;;;;;;;19.40;92.80;;;19.92;51.89;98074.03;4920399;28;124019;-82
2023/08/28 10:16:44;;;;;;;;;;;19.40;92.60;;;19.97;51.68;98065.25;4932561;28;113625;-83
2023/08/28 10:19:17;;;;;;;;;;;19.50;92.30;;;20.00;51.52;98068.06;4930465;28;114384;-82
2023/08/28 10:21:47;;;;;;;;;;;19.50;92.00;;;20.01;50.57;98077.28;4959647;28;124555;-83
2023/08/28 10:24:14;;;;;;;;;;;19.60;91.50;;;20.00;50.33;98078.47;4959570;28;123744;-81
2023/08/28 10:26:42;;;;;;;;;;;19.60;91.30;;;19.99;50.52;98082.50;4961773;28;114338;-82
2023/08/28 10:29:09;;;;;;;;;;;19.50;91.30;;;20.01;50.98;98080.06;4930486;28;114129;-81
2023/08/28 10:31:37;;;;;;;;;;;19.60;91.70;;;20.11;50.94;98076.53;4930997;28;123866;-83
2023/08/28 10:34:07;;;;;;;;;;;19.60;91.80;;;20.12;50.19;98072.50;4950341;28;124173;-81
2023/08/28 10:36:33;;;;;;;;;;;19.70;91.40;;;20.14;50.55;98070.13;4938794;28;113958;-82
2023/08/28 10:39:03;;;;;;;;;;;19.70;91.30;;;20.14;50.70;98058.91;4959074;28;113654;-81
2023/08/28 10:41:30;;;;;;;;;;;19.70;91.50;;;20.16;49.90;98056.53;4925762;28;124960;-81
2023/08/28 10:43:59;;;;;;;;;;;19.70;91.20;;;20.15;50.11;98054.91;4955077;28;124111;-83
2023/08/28 10:46:28;;;;;;;;;;;19.70;91.20;;;20.11;50.01;98050.50;4921266;28;114968;-82
2023/08/28 10:49:00;;;;;;;;;;;19.70;91.20;;;20.15;49.92;98054.91;4950978;28;113387;-80
2023/08/28 10:51:37;;;;;;;;;;;19.70;91.10;;;20.21;49.90;98044.91;4918818;28;124052;-81
2023/08/28 10:54:08;;;;;;;;;;;19.80;91.00;;;20.28;49.99;98038.50;4939444;28;124118;-81
2023/08/28 10:56:37;;;;;;;;;;;19.80;91.10;;;20.36;49.54;98037.34;4940599;28;115204;-81
2023/08/28 10:59:24;;;;;;;;;;;19.90;90.90;;;20.39;49.29;98030.97;4944870;28;113721;-83
2023/08/28 11:02:02;;;;;;;;;;;19.90;90.80;;;20.47;49.61;98023.31;4955609;28;124111;-80
2023/08/28 11:04:37;;;;;;;;;;;20.00;90.80;;;20.52;49.36;98023.78;4935936;28;123919;-81
2023/08/28 11:07:04;;;;;;;;;;;20.10;90.70;;;20.60;49.42;98023.78;4937042;28;115509;-82
2023/08/28 11:09:32;;;;;;;;;;;20.10;90.60;;;20.69;49.15;98027.81;4940453;28;113801;-80
2023/08/28 11:12:01;;;;;;;;;;;20.20;90.60;;;20.80;48.91;98025.03;4929229;28;124375;-81
2023/08/28 11:14:43;;;;;;;;;;;20.30;90.50;;;20.83;47.70;98029.03;4939228;28;124475;-81